Time;durP1;ratioP1;P1;durP2;ratioP2;P2;SDS_P1;SDS_P2;PMS_P1;PMS_P2;Temp;Humidity;BMP_temperature;BMP_pressure;BME280_temperature;BME280_humidity;BME280_pressure;Samples;Min_cycle;Max_cycle;Signal;HPM_P1;HPM_P2
2024/04/10 00:00:14;;;;;;;7.00;1.80;;;11.80;97.60;;;;;;5412754;26;20039;-67
2024/04/10 00:02:40;;;;;;;7.65;1.35;;;11.90;97.60;;;;;;5408571;26;20005;-68
2024/04/10 00:05:07;;;;;;;8.25;1.45;;;11.80;97.60;;;;;;5391727;26;20015;-69
2024/04/10 00:07:32;;;;;;;7.55;1.65;;;11.80;97.50;;;;;;5373888;26;20011;-68
2024/04/10 00:09:58;;;;;;;8.10;1.55;;;11.80;97.60;;;;;;5371717;26;20081;-67
2024/04/10 00:12:23;;;;;;;4.70;1.55;;;11.80;97.70;;;;;;5379200;26;19992;-68
2024/04/10 00:14:49;;;;;;;4.78;1.55;;;11.80;97.80;;;;;;5381827;26;20337;-68
2024/04/10 00:17:15;;;;;;;8.25;1.50;;;11.80;97.90;;;;;;5393938;26;19999;-69
2024/04/10 00:19:40;;;;;;;7.47;1.83;;;11.80;97.90;;;;;;5414832;26;19999;-68
2024/04/10 00:22:06;;;;;;;4.28;1.50;;;11.70;97.80;;;;;;5405448;26;20436;-68
2024/04/10 00:24:32;;;;;;;6.75;1.33;;;11.80;97.90;;;;;;5371391;26;20014;-71
2024/04/10 00:26:57;;;;;;;5.75;1.30;;;11.70;97.90;;;;;;5364445;26;20046;-69
2024/04/10 00:29:23;;;;;;;6.55;1.60;;;11.70;97.90;;;;;;5370123;26;20004;-68
2024/04/10 00:31:52;;;;;;;6.68;1.55;;;11.70;98.00;;;;;;5380036;26;20081;-68
2024/04/10 00:34:18;;;;;;;13.23;1.95;;;11.70;98.00;;;;;;5407904;26;20015;-68
2024/04/10 00:36:43;;;;;;;2.78;1.40;;;11.70;98.00;;;;;;5373183;26;20007;-67
2024/04/10 00:39:09;;;;;;;6.80;1.73;;;11.70;98.00;;;;;;5379947;26;20327;-70
2024/04/10 00:41:35;;;;;;;6.72;1.70;;;11.70;98.00;;;;;;5364769;26;19995;-68
2024/04/10 00:44:00;;;;;;;5.45;1.63;;;11.70;98.00;;;;;;5394570;26;20013;-68
2024/04/10 00:46:27;;;;;;;5.50;2.10;;;11.70;97.90;;;;;;5399622;26;20004;-68
2024/04/10 00:48:53;;;;;;;10.40;2.30;;;11.70;98.00;;;;;;5366153;26;20011;-68
2024/04/10 00:51:19;;;;;;;7.75;1.77;;;11.70;98.10;;;;;;5388295;26;20015;-68
2024/04/10 00:53:46;;;;;;;11.30;2.28;;;11.70;98.10;;;;;;5356755;26;20007;-68
2024/04/10 00:56:12;;;;;;;8.95;2.03;;;11.60;98.10;;;;;;5385937;26;20037;-67
2024/04/10 00:58:38;;;;;;;6.93;1.65;;;11.60;98.00;;;;;;5376284;26;19995;-67
2024/04/10 01:01:05;;;;;;;10.23;1.98;;;11.60;98.00;;;;;;5360962;26;20000;-68
2024/04/10 01:03:31;;;;;;;2.97;1.75;;;11.70;98.10;;;;;;5377152;26;19996;-67
2024/04/10 01:06:01;;;;;;;6.43;1.80;;;11.60;98.10;;;;;;5373654;26;20396;-68
2024/04/10 01:08:28;;;;;;;7.47;1.65;;;11.60;98.00;;;;;;5363392;26;20005;-68
2024/04/10 01:10:54;;;;;;;7.72;1.60;;;11.60;98.00;;;;;;5362888;26;20457;-68
2024/04/10 01:13:20;;;;;;;10.00;1.70;;;11.60;98.00;;;;;;5369448;26;20070;-67
2024/04/10 01:15:46;;;;;;;12.07;2.28;;;11.60;98.10;;;;;;5417933;26;20015;-69
2024/04/10 01:18:12;;;;;;;6.65;2.55;;;11.60;98.20;;;;;;5369561;26;20008;-68
2024/04/10 01:20:38;;;;;;;8.25;2.47;;;11.60;98.30;;;;;;5360476;26;20044;-67
2024/04/10 01:23:04;;;;;;;9.15;2.03;;;11.60;98.40;;;;;;5371093;26;20011;-67
2024/04/10 01:25:30;;;;;;;7.03;1.90;;;11.50;98.40;;;;;;5372113;26;20000;-68
2024/04/10 01:27:56;;;;;;;10.70;2.60;;;11.50;98.60;;;;;;5369023;26;20617;-68
2024/04/10 01:30:21;;;;;;;8.55;2.50;;;11.50;98.60;;;;;;5410667;26;19999;-67
2024/04/10 01:32:47;;;;;;;11.35;2.40;;;11.50;98.70;;;;;;5355743;26;20373;-67
2024/04/10 01:35:13;;;;;;;12.27;2.63;;;11.50;98.80;;;;;;5371361;26;20074;-67
2024/04/10 01:37:38;;;;;;;7.82;2.35;;;11.50;98.90;;;;;;5385714;26;20003;-68
2024/04/10 01:40:04;;;;;;;8.35;3.22;;;11.50;98.90;;;;;;5404564;26;20039;-68
2024/04/10 01:42:30;;;;;;;15.38;2.70;;;11.50;99.00;;;;;;5370476;26;20523;-68
2024/04/10 01:44:56;;;;;;;6.65;1.95;;;11.40;98.90;;;;;;5376293;26;20115;-68
2024/04/10 01:47:21;;;;;;;8.43;2.53;;;11.50;99.00;;;;;;5351933;26;20035;-68
2024/04/10 01:49:47;;;;;;;18.15;3.55;;;11.40;99.00;;;;;;5363097;26;19996;-68
2024/04/10 01:52:13;;;;;;;8.43;2.60;;;11.40;99.10;;;;;;5364205;26;20004;-68
2024/04/10 01:54:38;;;;;;;11.80;2.92;;;11.40;99.20;;;;;;5405628;26;20047;-67
2024/04/10 01:57:04;;;;;;;14.85;2.83;;;11.30;99.20;;;;;;5379120;26;20019;-68
2024/04/10 01:59:30;;;;;;;14.18;3.25;;;11.30;99.30;;;;;;5375457;26;20399;-68
2024/04/10 02:01:55;;;;;;;9.40;2.92;;;11.20;99.40;;;;;;5384942;26;19996;-68
2024/04/10 02:04:21;;;;;;;6.97;2.72;;;11.20;99.40;;;;;;5401948;26;20576;-69
2024/04/10 02:06:46;;;;;;;14.98;2.40;;;11.30;99.50;;;;;;5411278;26;20010;-68
2024/04/10 02:09:12;;;;;;;12.88;2.60;;;11.20;99.50;;;;;;5371859;26;20457;-69
2024/04/10 02:11:38;;;;;;;8.10;2.70;;;11.20;99.60;;;;;;5381778;26;20004;-68
2024/04/10 02:14:04;;;;;;;14.82;2.35;;;11.20;99.70;;;;;;5391493;26;20015;-67
2024/04/10 02:16:31;;;;;;;11.68;2.63;;;11.20;99.70;;;;;;5412821;26;20022;-68
2024/04/10 02:18:56;;;;;;;9.05;2.50;;;11.20;99.70;;;;;;5417793;26;19996;-68
2024/04/10 02:21:22;;;;;;;10.88;2.70;;;11.20;99.70;;;;;;5410468;26;20015;-68
2024/04/10 02:23:48;;;;;;;8.50;2.58;;;11.20;99.80;;;;;;5418778;26;20324;-67
2024/04/10 02:26:14;;;;;;;8.32;2.38;;;11.20;99.70;;;;;;5413665;26;20018;-69
2024/04/10 02:28:41;;;;;;;9.82;2.53;;;11.20;99.70;;;;;;5402379;26;20603;-67
2024/04/10 02:31:07;;;;;;;15.48;2.30;;;11.20;99.80;;;;;;5380175;26;20058;-69
2024/04/10 02:33:39;;;;;;;12.05;2.70;;;11.20;99.80;;;;;;5373485;26;19996;-68
2024/04/10 02:36:07;;;;;;;12.25;2.95;;;11.20;99.80;;;;;;5369992;26;20011;-68
2024/04/10 02:38:33;;;;;;;13.87;2.63;;;11.20;99.70;;;;;;5375242;26;20097;-68
2024/04/10 02:40:59;;;;;;;15.15;2.85;;;11.30;99.80;;;;;;5380072;26;20052;-68
2024/04/10 02:43:25;;;;;;;10.48;2.38;;;11.30;99.80;;;;;;5376517;26;20330;-68
2024/04/10 02:46:01;;;;;;;14.48;2.92;;;11.20;99.90;;;;;;5369581;26;19999;-68
2024/04/10 02:48:27;;;;;;;16.50;2.42;;;11.20;99.90;;;;;;5381047;26;20345;-68
2024/04/10 02:50:54;;;;;;;11.52;2.40;;;11.20;99.90;;;;;;5371748;26;20014;-68
2024/04/10 02:53:20;;;;;;;12.75;2.30;;;11.20;99.90;;;;;;5377919;26;20004;-68
2024/04/10 02:55:48;;;;;;;15.73;3.33;;;11.20;99.90;;;;;;5372757;26;20000;-68
2024/04/10 02:58:14;;;;;;;11.93;2.83;;;11.20;99.90;;;;;;5404542;26;20001;-68
2024/04/10 03:00:47;;;;;;;9.40;2.75;;;11.10;99.90;;;;;;5379191;26;20585;-68
2024/04/10 03:03:12;;;;;;;17.15;2.60;;;11.10;99.90;;;;;;5375414;26;20008;-69
2024/04/10 03:05:42;;;;;;;15.82;2.70;;;11.20;99.90;;;;;;5373169;26;20063;-67
2024/04/10 03:08:10;;;;;;;13.93;2.35;;;11.20;99.90;;;;;;5375791;26;20012;-69
2024/04/10 03:10:36;;;;;;;17.95;2.80;;;11.20;99.90;;;;;;5375475;26;20003;-67
2024/04/10 03:13:01;;;;;;;10.27;2.53;;;11.20;99.90;;;;;;5373126;26;20000;-68
2024/04/10 03:15:27;;;;;;;20.73;2.72;;;11.20;99.90;;;;;;5379707;26;20360;-68
2024/04/10 03:17:53;;;;;;;11.60;2.70;;;11.20;99.90;;;;;;5375321;26;20000;-68
2024/04/10 03:20:20;;;;;;;10.80;2.70;;;11.20;99.90;;;;;;5383714;26;20000;-69
2024/04/10 03:22:46;;;;;;;15.13;2.28;;;11.10;99.90;;;;;;5364090;26;20005;-68
2024/04/10 03:25:12;;;;;;;13.23;2.72;;;11.10;99.90;;;;;;5371175;26;20011;-68
2024/04/10 03:27:40;;;;;;;9.38;2.60;;;11.10;99.90;;;;;;5375974;26;20003;-66
2024/04/10 03:30:07;;;;;;;11.15;2.92;;;11.10;99.90;;;;;;5367645;26;20004;-67
2024/04/10 03:32:33;;;;;;;14.40;2.50;;;11.10;99.90;;;;;;5410156;26;20004;-68
2024/04/10 03:34:59;;;;;;;11.85;3.13;;;11.10;99.90;;;;;;5372197;26;20058;-67
2024/04/10 03:37:25;;;;;;;16.25;3.22;;;11.00;99.90;;;;;;5374635;26;20008;-67
2024/04/10 03:39:51;;;;;;;13.00;2.45;;;11.00;99.90;;;;;;5375186;26;20015;-68
2024/04/10 03:42:18;;;;;;;8.60;2.60;;;11.00;99.90;;;;;;5376875;26;20011;-68
2024/04/10 03:44:43;;;;;;;10.80;3.10;;;11.00;99.90;;;;;;5375482;26;19996;-68
2024/04/10 03:47:09;;;;;;;10.77;2.58;;;11.00;99.90;;;;;;5372502;26;20000;-69
2024/04/10 03:49:34;;;;;;;14.30;2.38;;;11.00;99.90;;;;;;5384096;26;20357;-68
2024/04/10 03:52:00;;;;;;;8.75;2.40;;;11.00;99.90;;;;;;5368872;26;20041;-68
2024/04/10 03:54:26;;;;;;;15.70;3.17;;;11.00;99.90;;;;;;5381607;26;20643;-67
2024/04/10 03:56:52;;;;;;;11.95;2.78;;;11.00;99.90;;;;;;5369337;26;20015;-68
2024/04/10 03:59:17;;;;;;;20.05;3.80;;;11.00;99.90;;;;;;5380255;26;20457;-68
2024/04/10 04:01:43;;;;;;;15.27;2.92;;;11.00;99.90;;;;;;5381971;26;20014;-69
2024/04/10 04:04:08;;;;;;;10.13;3.10;;;11.00;99.90;;;;;;5377969;26;19996;-68
2024/04/10 04:06:34;;;;;;;15.32;2.67;;;11.00;99.90;;;;;;5374648;26;20022;-68
2024/04/10 04:09:00;;;;;;;8.13;2.67;;;10.90;99.90;;;;;;5381183;26;20004;-67
2024/04/10 04:11:27;;;;;;;9.40;2.70;;;11.00;99.90;;;;;;5371961;26;20005;-67
2024/04/10 04:13:52;;;;;;;14.48;2.90;;;11.00;99.90;;;;;;5377971;26;20000;-68
2024/04/10 04:16:18;;;;;;;12.77;2.95;;;11.00;99.90;;;;;;5376810;26;20011;-68
2024/04/10 04:18:44;;;;;;;13.52;3.83;;;11.00;99.90;;;;;;5376334;26;19996;-68
2024/04/10 04:21:09;;;;;;;22.15;2.88;;;10.90;99.90;;;;;;5405665;26;20015;-69
2024/04/10 04:23:36;;;;;;;13.40;2.97;;;10.90;99.90;;;;;;5361849;26;20024;-68
2024/04/10 04:26:02;;;;;;;14.65;2.72;;;10.90;99.90;;;;;;5373369;26;20011;-68
2024/04/10 04:28:28;;;;;;;12.80;2.80;;;11.00;99.90;;;;;;5353198;26;20015;-68
2024/04/10 04:30:54;;;;;;;12.95;2.42;;;10.90;99.90;;;;;;5373551;26;20464;-68
2024/04/10 04:33:20;;;;;;;13.95;2.55;;;10.90;99.90;;;;;;5368186;26;20000;-68
2024/04/10 04:35:46;;;;;;;12.52;2.47;;;10.90;99.90;;;;;;5387016;26;20405;-65
2024/04/10 04:38:12;;;;;;;13.18;2.63;;;10.90;99.90;;;;;;5370040;26;20727;-65
2024/04/10 04:40:37;;;;;;;10.00;2.47;;;10.90;99.90;;;;;;5381316;26;19999;-65
2024/04/10 04:43:10;;;;;;;13.25;2.70;;;10.90;99.90;;;;;;5402805;26;20047;-65
2024/04/10 04:45:39;;;;;;;18.05;3.58;;;10.90;99.90;;;;;;5402036;26;20080;-66
2024/04/10 04:48:07;;;;;;;16.23;2.75;;;10.80;99.90;;;;;;5398772;26;20014;-65
2024/04/10 04:50:33;;;;;;;17.10;2.95;;;10.80;99.90;;;;;;5379911;26;20011;-65
2024/04/10 04:52:59;;;;;;;14.20;2.45;;;10.80;99.90;;;;;;5395097;26;20737;-65
2024/04/10 04:55:25;;;;;;;11.43;2.38;;;10.80;99.90;;;;;;5414632;26;20007;-65
2024/04/10 04:57:51;;;;;;;16.38;2.63;;;10.80;99.90;;;;;;5372814;26;20004;-66
2024/04/10 05:00:19;;;;;;;10.25;2.53;;;10.80;99.90;;;;;;5403948;26;20068;-66
2024/04/10 05:02:46;;;;;;;15.93;2.75;;;10.80;99.90;;;;;;5401578;26;20444;-66
2024/04/10 05:05:21;;;;;;;10.25;2.45;;;10.80;99.90;;;;;;5382632;26;20001;-65
2024/04/10 05:07:48;;;;;;;16.63;2.35;;;10.80;99.90;;;;;;5388727;26;20007;-65
2024/04/10 05:10:14;;;;;;;15.30;2.75;;;10.80;99.90;;;;;;5407331;26;20018;-67
2024/04/10 05:12:41;;;;;;;11.40;2.67;;;10.80;99.90;;;;;;5370805;26;20141;-66
2024/04/10 05:15:11;;;;;;;21.67;2.55;;;10.80;99.90;;;;;;5369209;26;20020;-66
2024/04/10 05:17:40;;;;;;;9.63;2.50;;;10.80;99.90;;;;;;5399570;26;20070;-66
2024/04/10 05:20:10;;;;;;;15.43;3.03;;;10.90;99.90;;;;;;5400561;26;20003;-65
2024/04/10 05:22:37;;;;;;;19.92;3.42;;;10.80;99.90;;;;;;5415186;26;20012;-65
2024/04/10 05:25:05;;;;;;;10.63;2.38;;;10.80;99.90;;;;;;5366587;26;20012;-67
2024/04/10 05:27:31;;;;;;;;;;;10.80;99.90;;;;;;5376762;26;20402;-65
2024/04/10 05:30:06;;;;;;;11.90;2.58;;;10.80;99.90;;;;;;5370294;26;19925;-65
2024/04/10 05:32:33;;;;;;;9.23;2.42;;;10.80;99.90;;;;;;5403210;26;20003;-67
2024/04/10 05:34:59;;;;;;;7.88;2.30;;;10.80;99.90;;;;;;5379530;26;20005;-65
2024/04/10 05:37:25;;;;;;;12.00;2.72;;;10.80;99.90;;;;;;5408605;26;20008;-65
2024/04/10 05:40:13;;;;;;;12.85;2.20;;;10.80;99.90;;;;;;5372310;26;20011;-66
2024/04/10 05:42:41;;;;;;;15.60;2.85;;;10.80;99.90;;;;;;5382350;26;20487;-65
2024/04/10 05:45:08;;;;;;;14.55;2.15;;;10.80;99.90;;;;;;5375962;26;20020;-66
2024/04/10 05:47:38;;;;;;;10.82;2.63;;;10.90;99.90;;;;;;5388873;26;20022;-65
2024/04/10 05:50:05;;;;;;;19.80;3.20;;;10.90;99.90;;;;;;5371628;26;20008;-66
2024/04/10 05:52:32;;;;;;;24.35;3.88;;;10.90;99.90;;;;;;5385621;26;19999;-65
2024/04/10 05:54:58;;;;;;;12.70;2.57;;;10.90;99.90;;;;;;5410964;26;20004;-66
2024/04/10 05:57:26;;;;;;;10.65;2.17;;;10.90;99.90;;;;;;5380404;26;20000;-65
2024/04/10 05:59:53;;;;;;;17.58;2.75;;;11.00;99.90;;;;;;5377513;26;20012;-65
2024/04/10 06:02:19;;;;;;;11.30;2.67;;;11.00;99.90;;;;;;5394305;26;20008;-66
2024/04/10 06:04:45;;;;;;;10.98;2.78;;;11.00;99.90;;;;;;5369668;26;20014;-67
2024/04/10 06:07:10;;;;;;;14.48;2.75;;;11.10;99.90;;;;;;5405193;26;20549;-65
2024/04/10 06:09:36;;;;;;;9.15;2.30;;;11.10;99.90;;;;;;5369405;26;20012;-65
2024/04/10 06:12:01;;;;;;;15.00;2.35;;;11.10;99.90;;;;;;5405409;26;20018;-65
2024/04/10 06:14:27;;;;;;;19.52;3.95;;;11.10;99.90;;;;;;5384525;26;20481;-65
2024/04/10 06:16:52;;;;;;;12.70;2.78;;;11.20;99.90;;;;;;5367703;26;20034;-65
2024/04/10 06:19:20;;;;;;;13.70;3.25;;;11.20;99.90;;;;;;5376250;26;20042;-66
2024/04/10 06:21:46;;;;;;;12.73;3.00;;;11.20;99.90;;;;;;5380085;26;20361;-65
2024/04/10 06:24:13;;;;;;;9.63;2.22;;;11.30;99.90;;;;;;5373771;26;20787;-65
2024/04/10 06:26:39;;;;;;;13.95;2.75;;;11.20;99.90;;;;;;5363480;26;20019;-65
2024/04/10 06:29:04;;;;;;;19.02;2.75;;;11.30;99.90;;;;;;5377838;26;19996;-66
2024/04/10 06:31:30;;;;;;;11.15;2.50;;;11.30;99.90;;;;;;5376378;26;20043;-66
2024/04/10 06:33:55;;;;;;;8.98;2.28;;;11.30;99.90;;;;;;5373371;26;20599;-65
2024/04/10 06:36:21;;;;;;;11.85;2.72;;;11.30;99.90;;;;;;5374736;26;20026;-65
2024/04/10 06:38:47;;;;;;;13.15;2.75;;;11.30;99.90;;;;;;5390727;26;20623;-67
2024/04/10 06:41:12;;;;;;;13.43;2.85;;;11.30;99.90;;;;;;5380879;26;20008;-66
2024/04/10 06:43:38;;;;;;;18.52;2.55;;;11.40;99.90;;;;;;5367400;26;20372;-66
2024/04/10 06:46:07;;;;;;;9.45;2.22;;;11.40;99.90;;;;;;5369054;26;20004;-66
2024/04/10 06:48:34;;;;;;;13.73;2.40;;;11.50;99.90;;;;;;5366871;26;20055;-66
2024/04/10 06:51:05;;;;;;;9.07;2.17;;;11.50;99.90;;;;;;5392985;26;20007;-65
2024/04/10 06:53:31;;;;;;;10.15;2.30;;;11.50;99.90;;;;;;5399018;26;20019;-65
2024/04/10 06:56:02;;;;;;;9.85;2.13;;;11.50;99.90;;;;;;5409982;26;20043;-66
2024/04/10 06:58:29;;;;;;;8.23;2.13;;;11.50;99.90;;;;;;5394427;26;19995;-66
2024/04/10 07:01:04;;;;;;;11.07;3.03;;;11.40;99.90;;;;;;5366899;26;20086;-66
2024/04/10 07:03:34;;;;;;;7.43;1.83;;;11.40;99.90;;;;;;5368539;26;20012;-66
2024/04/10 07:06:11;;;;;;;8.68;2.00;;;11.40;99.90;;;;;;5366009;26;20008;-66
2024/04/10 07:08:39;;;;;;;8.45;2.35;;;11.40;99.90;;;;;;5402252;26;20019;-66
2024/04/10 07:11:11;;;;;;;8.15;2.17;;;11.40;99.90;;;;;;5415467;26;20010;-65
2024/04/10 07:13:37;;;;;;;13.35;2.30;;;11.50;99.90;;;;;;5408166;26;20269;-66
2024/04/10 07:16:04;;;;;;;6.85;2.30;;;11.60;99.90;;;;;;5407060;26;20079;-65
2024/04/10 07:18:30;;;;;;;9.68;1.92;;;11.60;99.90;;;;;;5405073;26;20007;-66
2024/04/10 07:21:03;;;;;;;8.18;1.92;;;11.70;99.90;;;;;;5404123;26;19999;-66
2024/04/10 07:23:29;;;;;;;6.50;1.63;;;11.60;99.90;;;;;;5363871;26;20012;-66
2024/04/10 07:26:05;;;;;;;13.77;2.97;;;11.60;99.90;;;;;;5386664;26;20008;-65
2024/04/10 07:28:31;;;;;;;8.18;1.83;;;11.60;99.90;;;;;;5407798;26;20034;-65
2024/04/10 07:30:57;;;;;;;20.17;2.40;;;11.60;99.90;;;;;;5405363;26;20010;-66
2024/04/10 07:33:23;;;;;;;6.38;1.70;;;11.70;99.90;;;;;;5408819;26;20661;-66
2024/04/10 07:35:49;;;;;;;9.13;1.75;;;11.60;99.90;;;;;;5399804;26;20547;-65
2024/04/10 07:38:16;;;;;;;8.57;2.13;;;11.60;99.90;;;;;;5389031;26;20154;-65
2024/04/10 07:40:55;;;;;;;7.47;1.90;;;11.70;99.90;;;;;;5382557;26;20088;-67
2024/04/10 07:43:20;;;;;;;7.38;2.08;;;11.90;99.90;;;;;;5410315;26;19995;-65
2024/04/10 07:45:46;;;;;;;12.70;2.22;;;11.90;99.90;;;;;;5406634;26;20007;-66
2024/04/10 07:48:11;;;;;;;9.32;1.98;;;12.00;99.90;;;;;;5375732;26;19996;-65
2024/04/10 07:50:37;;;;;;;12.52;2.38;;;12.20;99.90;;;;;;5393209;26;20597;-67
2024/04/10 07:53:03;;;;;;;6.07;1.48;;;12.10;99.90;;;;;;5409357;26;20003;-66
2024/04/10 07:55:28;;;;;;;12.60;2.60;;;12.10;99.80;;;;;;5403382;26;20700;-67
2024/04/10 07:57:54;;;;;;;8.05;1.67;;;12.10;99.80;;;;;;5403084;26;20004;-66
2024/04/10 08:00:20;;;;;;;9.30;2.05;;;12.20;99.90;;;;;;5406582;26;20630;-66
2024/04/10 08:02:45;;;;;;;10.93;2.13;;;12.20;99.90;;;;;;5407049;26;19999;-67
2024/04/10 08:05:11;;;;;;;5.95;2.05;;;12.30;99.90;;;;;;5404699;26;20000;-67
2024/04/10 08:07:36;;;;;;;7.38;2.05;;;12.20;99.90;;;;;;5401905;26;20008;-66
2024/04/10 08:10:03;;;;;;;14.00;2.70;;;12.30;99.90;;;;;;5398863;26;20039;-66
2024/04/10 08:12:29;;;;;;;12.18;2.33;;;12.30;99.90;;;;;;5405196;26;20043;-66
2024/04/10 08:14:56;;;;;;;9.73;2.03;;;12.20;99.90;;;;;;5385899;26;20032;-66
2024/04/10 08:17:22;;;;;;;4.55;1.80;;;12.20;99.80;;;;;;5403645;26;19995;-66
2024/04/10 08:19:47;;;;;;;6.70;1.75;;;12.20;99.70;;;;;;5387640;26;20004;-68
2024/04/10 08:22:13;;;;;;;12.27;1.77;;;12.30;99.60;;;;;;5373889;26;20504;-66
2024/04/10 08:24:39;;;;;;;9.45;1.80;;;12.30;99.50;;;;;;5379380;26;20036;-66
2024/04/10 08:27:05;;;;;;;12.60;2.10;;;12.30;99.30;;;;;;5369869;26;20944;-66
2024/04/10 08:29:31;;;;;;;12.57;2.05;;;12.40;98.80;;;;;;5357400;26;20000;-66
2024/04/10 08:31:58;;;;;;;11.57;2.20;;;12.50;99.00;;;;;;5362284;26;19996;-66
2024/04/10 08:34:24;;;;;;;11.53;1.87;;;12.60;98.90;;;;;;5357834;26;20549;-67
2024/04/10 08:36:50;;;;;;;5.38;1.42;;;12.50;98.80;;;;;;5365281;26;20011;-67
2024/04/10 08:39:17;;;;;;;10.38;1.73;;;12.50;98.70;;;;;;5365916;26;20005;-66
2024/04/10 08:41:43;;;;;;;7.20;1.60;;;12.60;98.90;;;;;;5363468;26;19992;-66
2024/04/10 08:44:09;;;;;;;5.57;1.45;;;12.70;98.80;;;;;;5363427;26;20015;-66
2024/04/10 08:46:37;;;;;;;7.00;1.83;;;12.70;98.50;;;;;;5373104;26;19995;-67
2024/04/10 08:49:04;;;;;;;4.95;1.50;;;12.70;98.40;;;;;;5407601;26;20004;-67
2024/04/10 08:51:32;;;;;;;5.55;1.55;;;12.60;98.00;;;;;;5408474;26;20012;-67
2024/04/10 08:53:59;;;;;;;4.47;1.40;;;12.60;98.20;;;;;;5396772;26;20003;-67
2024/04/10 08:56:24;;;;;;;9.73;1.88;;;12.70;98.00;;;;;;5411557;26;20044;-69
2024/04/10 08:58:53;;;;;;;6.28;1.85;;;12.70;98.00;;;;;;5395914;26;20870;-66
2024/04/10 09:01:33;;;;;;;12.52;2.15;;;12.80;98.40;;;;;;5376279;26;19996;-67
2024/04/10 09:04:09;;;;;;;8.55;1.60;;;12.80;97.90;;;;;;5400652;26;21155;-66
2024/04/10 09:06:35;;;;;;;7.22;1.25;;;12.90;98.00;;;;;;5359833;26;20000;-66
2024/04/10 09:09:08;;;;;;;7.80;1.20;;;13.00;97.30;;;;;;5387509;26;20007;-66
2024/04/10 09:11:35;;;;;;;12.48;1.98;;;13.10;96.30;;;;;;5399819;26;20468;-66
2024/04/10 09:14:05;;;;;;;5.10;1.35;;;13.00;96.30;;;;;;5395456;26;20011;-66
2024/04/10 09:16:32;;;;;;;12.20;1.63;;;12.90;96.20;;;;;;5366175;26;20007;-66
2024/04/10 09:19:15;;;;;;;5.93;1.40;;;13.00;96.60;;;;;;5369928;26;20402;-67
2024/04/10 09:21:45;;;;;;;4.50;1.13;;;13.10;96.90;;;;;;5405076;26;20006;-66
2024/04/10 09:24:13;;;;;;;4.63;1.40;;;13.30;96.80;;;;;;5403740;26;20007;-66
2024/04/10 09:26:41;;;;;;;10.32;1.98;;;13.40;96.70;;;;;;5409049;26;20354;-66
2024/04/10 09:29:12;;;;;;;5.05;1.10;;;13.40;96.80;;;;;;5361671;26;19992;-66
2024/04/10 09:31:39;;;;;;;8.13;1.60;;;13.40;96.60;;;;;;5404783;26;20026;-67
2024/04/10 09:34:05;;;;;;;13.90;1.27;;;13.50;97.10;;;;;;5367993;26;20018;-67
2024/04/10 09:36:35;;;;;;;7.97;1.50;;;13.60;96.00;;;;;;5418964;26;20008;-67
2024/04/10 09:39:03;;;;;;;3.15;1.15;;;13.60;95.80;;;;;;5413119;26;20018;-67
2024/04/10 09:41:31;;;;;;;10.13;1.88;;;13.70;96.20;;;;;;5408357;26;20003;-67
2024/04/10 09:43:58;;;;;;;;;;;13.70;96.00;;;;;;5408486;26;20001;-67
2024/04/10 09:46:33;;;;;;;7.70;1.60;;;13.70;95.80;;;;;;5407295;26;19940;-67
2024/04/10 09:49:12;;;;;;;6.15;1.50;;;13.80;96.20;;;;;;5398527;26;20097;-67
2024/04/10 09:51:45;;;;;;;6.40;1.65;;;14.00;95.90;;;;;;5404062;26;20014;-66
2024/04/10 09:54:11;;;;;;;5.90;1.33;;;14.10;95.40;;;;;;5399789;26;20031;-66
2024/04/10 09:56:39;;;;;;;7.28;1.60;;;14.10;95.40;;;;;;5414473;26;20004;-66
2024/04/10 09:59:06;;;;;;;6.30;1.25;;;14.10;94.90;;;;;;5406671;26;20011;-67
2024/04/10 10:01:32;;;;;;;7.47;1.20;;;14.00;94.70;;;;;;5414268;26;20000;-66
2024/04/10 10:03:58;;;;;;;5.97;1.58;;;14.00;94.80;;;;;;5408614;26;20011;-67
2024/04/10 10:06:31;;;;;;;5.07;1.33;;;14.00;94.50;;;;;;5407277;26;20144;-66
2024/04/10 10:08:58;;;;;;;3.65;1.20;;;14.20;94.80;;;;;;5398512;26;20531;-67
2024/04/10 10:11:24;;;;;;;4.90;1.35;;;14.40;94.80;;;;;;5409246;26;20015;-66
2024/04/10 10:14:03;;;;;;;6.40;1.55;;;14.40;94.50;;;;;;5420875;26;20073;-66
2024/04/10 10:16:31;;;;;;;8.27;1.33;;;14.50;94.40;;;;;;5415025;26;20001;-66
2024/04/10 10:19:01;;;;;;;6.93;1.80;;;14.50;94.80;;;;;;5404400;26;20034;-66
2024/04/10 10:21:31;;;;;;;8.43;1.40;;;14.70;94.60;;;;;;5368148;26;20039;-66
2024/04/10 10:24:09;;;;;;;5.13;1.20;;;14.90;94.70;;;;;;5399496;26;20531;-67
2024/04/10 10:26:35;;;;;;;6.40;1.42;;;15.30;94.00;;;;;;5405928;26;20012;-67
2024/04/10 10:29:05;;;;;;;9.82;1.90;;;15.40;94.10;;;;;;5416003;26;20013;-67
2024/04/10 10:31:31;;;;;;;9.98;1.70;;;15.40;94.10;;;;;;5414165;26;19995;-67
2024/04/10 10:34:03;;;;;;;9.68;1.70;;;15.20;94.40;;;;;;5408015;26;20006;-66
2024/04/10 10:36:36;;;;;;;5.80;1.40;;;15.70;94.70;;;;;;5410034;26;20025;-66
2024/04/10 10:39:10;;;;;;;8.00;1.70;;;15.80;93.60;;;;;;5409236;26;20004;-66
2024/04/10 10:41:36;;;;;;;7.85;1.67;;;15.60;93.40;;;;;;5399739;26;20040;-66
2024/04/10 10:44:02;;;;;;;9.48;1.70;;;15.60;93.40;;;;;;5411671;26;20065;-67
2024/04/10 10:46:28;;;;;;;6.47;1.70;;;15.40;92.60;;;;;;5410505;26;20080;-66
2024/04/10 10:48:54;;;;;;;5.05;1.20;;;15.30;91.80;;;;;;5410469;26;20003;-67
2024/04/10 10:51:20;;;;;;;4.90;1.00;;;15.40;92.60;;;;;;5410550;26;20011;-67
2024/04/10 10:53:49;;;;;;;2.42;0.80;;;15.60;91.90;;;;;;5408979;26;20000;-66
2024/04/10 10:56:25;;;;;;;7.78;1.38;;;15.80;92.20;;;;;;5413862;26;20000;-67
2024/04/10 10:58:54;;;;;;;2.45;0.80;;;16.00;92.10;;;;;;5361495;26;20003;-66
2024/04/10 11:01:20;;;;;;;3.58;1.00;;;16.20;92.00;;;;;;5411032;26;20000;-66
2024/04/10 11:03:49;;;;;;;4.03;1.00;;;16.10;90.80;;;;;;5402205;26;20018;-66
2024/04/10 11:06:16;;;;;;;1.88;0.73;;;16.30;91.10;;;;;;5412166;26;20747;-67
2024/04/10 11:08:42;;;;;;;5.57;1.38;;;16.70;91.60;;;;;;5410561;26;20518;-67
2024/04/10 11:11:12;;;;;;;6.38;1.13;;;17.00;90.90;;;;;;5409370;26;19995;-66
2024/04/10 11:13:49;;;;;;;1.67;0.63;;;17.10;90.60;;;;;;5401005;26;20007;-66
2024/04/10 11:16:32;;;;;;;3.08;0.88;;;17.10;91.00;;;;;;5406622;26;20011;-66
2024/04/10 11:18:59;;;;;;;3.42;1.00;;;17.30;90.00;;;;;;5405248;26;20657;-66
2024/04/10 11:21:25;;;;;;;3.45;0.90;;;17.30;89.70;;;;;;5413865;26;20647;-66
2024/04/10 11:23:51;;;;;;;4.72;0.90;;;17.50;89.50;;;;;;5409470;26;20007;-67
2024/04/10 11:26:17;;;;;;;5.13;1.05;;;17.20;89.40;;;;;;5405708;26;20010;-67
2024/04/10 11:28:43;;;;;;;5.35;0.98;;;17.30;90.60;;;;;;5405880;26;19999;-66
2024/04/10 11:31:10;;;;;;;3.20;0.82;;;17.40;90.30;;;;;;5405998;26;20008;-67
2024/04/10 11:33:36;;;;;;;3.85;1.02;;;17.20;87.80;;;;;;5410035;26;20084;-66
2024/04/10 11:36:02;;;;;;;6.93;0.93;;;17.10;89.20;;;;;;5409694;26;20006;-66
2024/04/10 11:38:29;;;;;;;6.53;0.77;;;17.10;88.30;;;;;;5409202;26;21196;-66
2024/04/10 11:40:55;;;;;;;6.55;0.95;;;17.10;89.50;;;;;;5407917;26;20006;-66
2024/04/10 11:43:20;;;;;;;2.97;0.70;;;16.90;87.20;;;;;;5405389;26;20005;-66
2024/04/10 11:45:46;;;;;;;5.43;1.00;;;16.60;87.90;;;;;;5403931;26;20453;-66
2024/04/10 11:48:12;;;;;;;7.78;1.10;;;16.60;89.80;;;;;;5403634;26;20011;-66
2024/04/10 11:50:37;;;;;;;4.68;1.23;;;16.40;88.80;;;;;;5408640;26;20018;-67
2024/04/10 11:53:03;;;;;;;4.80;1.15;;;16.30;88.80;;;;;;5408174;26;20023;-66
2024/04/10 11:55:29;;;;;;;2.85;0.98;;;16.30;90.00;;;;;;5410253;26;20043;-66
2024/04/10 11:57:55;;;;;;;8.10;1.30;;;16.20;89.60;;;;;;5415074;26;20352;-66
2024/04/10 12:00:20;;;;;;;6.20;1.35;;;15.90;89.90;;;;;;5366081;26;19996;-67
2024/04/10 12:02:46;;;;;;;6.10;1.25;;;16.00;90.30;;;;;;5359848;26;20015;-67
2024/04/10 12:05:12;;;;;;;5.90;0.90;;;16.30;89.50;;;;;;5406132;26;20004;-66
2024/04/10 12:07:38;;;;;;;7.65;1.00;;;16.80;91.10;;;;;;5411218;26;20003;-67
2024/04/10 12:10:05;;;;;;;4.25;0.80;;;17.40;91.90;;;;;;5402994;26;20456;-66
2024/04/10 12:12:31;;;;;;;3.08;0.93;;;18.00;89.60;;;;;;5405569;26;20003;-66
2024/04/10 12:14:57;;;;;;;6.93;1.10;;;18.10;86.50;;;;;;5402886;26;20014;-67
2024/04/10 12:17:22;;;;;;;5.70;1.02;;;17.80;86.00;;;;;;5404343;26;20001;-66
2024/04/10 12:19:48;;;;;;;2.55;1.10;;;17.70;86.20;;;;;;5405925;26;20010;-67
2024/04/10 12:22:13;;;;;;;3.55;0.95;;;17.40;86.80;;;;;;5405236;26;20003;-67
2024/04/10 12:24:39;;;;;;;2.80;1.02;;;17.50;88.80;;;;;;5410918;26;20010;-67
2024/04/10 12:27:05;;;;;;;2.53;0.98;;;17.20;87.40;;;;;;5404559;26;19995;-66
2024/04/10 12:29:30;;;;;;;3.92;0.98;;;17.20;89.30;;;;;;5411118;26;20361;-66
2024/04/10 12:31:56;;;;;;;5.40;1.02;;;17.50;88.90;;;;;;5370631;26;20011;-67
2024/04/10 12:34:22;;;;;;;7.25;0.98;;;18.00;89.90;;;;;;5408884;26;19995;-67
2024/04/10 12:39:35;;;;;;;2.97;0.93;;;19.70;86.60;;;;;;5414564;26;20013;-67
2024/04/10 12:42:00;;;;;;;6.07;0.93;;;19.70;86.40;;;;;;5404909;26;20790;-67
2024/04/10 12:44:26;;;;;;;2.60;0.95;;;19.30;83.30;;;;;;5355185;26;20018;-66